Time;durP1;ratioP1;P1;durP2;ratioP2;P2;SDS_P1;SDS_P2;PMS_P1;PMS_P2;Temp;Humidity;BMP_temperature;BMP_pressure;BME280_temperature;BME280_humidity;BME280_pressure;Samples;Min_cycle;Max_cycle;Signal;HPM_P1;HPM_P2
2023/04/20 00:02:01;;;;;;;0.50;0.47;;;6.60;99.90;8.20;96705.00;;;;5103891;28;20646;-74
2023/04/20 00:04:52;;;;;;;0.80;0.63;;;6.60;99.90;8.00;96704.00;;;;5104848;28;20624;-73
2023/04/20 00:07:41;;;;;;;0.93;0.80;;;6.60;99.90;8.00;96703.00;;;;5102166;28;20300;-73
2023/04/20 00:10:30;;;;;;;0.67;0.50;;;6.50;99.90;7.80;96699.00;;;;5105662;27;20203;-73
2023/04/20 00:13:19;;;;;;;0.60;0.60;;;6.50;99.90;7.80;96696.00;;;;5111346;27;20276;-72
2023/04/20 00:16:08;;;;;;;1.80;0.87;;;6.50;99.90;8.00;96692.00;;;;5107869;28;20206;-72
2023/04/20 00:18:58;;;;;;;0.70;0.70;;;6.50;99.90;8.10;96694.00;;;;5104708;28;20267;-72
2023/04/20 00:21:48;;;;;;;0.70;0.60;;;6.50;99.90;8.00;96683.00;;;;5095615;28;20219;-72
2023/04/20 00:24:37;;;;;;;0.70;0.70;;;6.50;99.90;7.90;96696.00;;;;5104503;27;20197;-72
2023/04/20 00:27:26;;;;;;;1.20;1.00;;;6.50;99.90;8.00;96698.00;;;;5102920;28;20206;-72
2023/04/20 00:30:15;;;;;;;0.90;0.90;;;6.50;99.90;8.00;96687.00;;;;5093043;28;20635;-72
2023/04/20 00:33:04;;;;;;;0.70;0.67;;;6.40;99.90;8.00;96686.00;;;;5101271;28;20220;-73
2023/04/20 00:35:53;;;;;;;1.50;0.60;;;6.40;99.90;8.00;96687.00;;;;5107614;28;20554;-72
2023/04/20 00:38:43;;;;;;;0.60;0.60;;;6.30;99.90;8.10;96681.00;;;;5107037;28;20195;-72
2023/04/20 00:41:31;;;;;;;0.60;0.60;;;6.50;99.90;8.10;96674.00;;;;5105243;28;20648;-72
2023/04/20 00:44:20;;;;;;;0.70;0.70;;;6.50;99.90;8.00;96675.00;;;;5110201;27;20202;-72
2023/04/20 00:47:09;;;;;;;0.73;0.73;;;6.50;99.90;7.90;96672.00;;;;5099821;28;20203;-72
2023/04/20 00:49:57;;;;;;;1.60;0.70;;;6.50;99.90;7.80;96676.00;;;;5104207;28;20199;-72
2023/04/20 00:52:47;;;;;;;1.20;1.13;;;6.50;99.90;7.80;96673.00;;;;5108457;28;20221;-72
2023/04/20 00:55:38;;;;;;;0.90;0.80;;;6.30;99.90;7.80;96675.00;;;;5106923;28;20236;-72
2023/04/20 00:58:27;;;;;;;1.83;0.80;;;6.40;99.90;7.80;96670.00;;;;5109512;28;20591;-72
2023/04/20 01:01:17;;;;;;;0.53;0.53;;;6.30;99.90;7.80;96671.00;;;;5105054;28;20709;-73
2023/04/20 01:04:06;;;;;;;0.60;0.60;;;6.30;99.90;7.80;96672.00;;;;5116196;27;20203;-72
2023/04/20 01:06:55;;;;;;;0.50;0.40;;;6.30;99.90;7.80;96677.00;;;;5105478;28;20202;-73
2023/04/20 01:09:44;;;;;;;0.60;0.60;;;6.30;99.90;7.80;96663.00;;;;5104122;28;20222;-72
2023/04/20 01:12:34;;;;;;;0.60;0.60;;;6.30;99.90;7.80;96662.00;;;;5109999;28;20214;-73
2023/04/20 01:15:23;;;;;;;0.60;0.60;;;6.30;99.90;7.80;96665.00;;;;5100991;28;20205;-72
2023/04/20 01:18:12;;;;;;;0.70;0.70;;;6.30;99.90;7.80;96664.00;;;;5107058;28;20249;-72
2023/04/20 01:21:01;;;;;;;0.60;0.60;;;6.30;99.90;7.90;96654.00;;;;5105581;28;20697;-73
2023/04/20 01:23:51;;;;;;;0.60;0.60;;;6.30;99.90;7.90;96653.00;;;;5106526;28;20303;-72
2023/04/20 01:26:40;;;;;;;0.60;0.60;;;6.30;99.90;7.90;96655.00;;;;5103133;28;20209;-72
2023/04/20 01:29:28;;;;;;;0.57;0.57;;;6.30;99.90;7.80;96659.00;;;;5104762;28;20259;-72
2023/04/20 01:32:17;;;;;;;0.73;0.73;;;6.30;99.90;7.80;96652.00;;;;5106326;28;20299;-72
2023/04/20 01:35:08;;;;;;;1.07;0.97;;;6.30;99.90;7.70;96650.00;;;;5108829;28;20256;-72
2023/04/20 01:37:56;;;;;;;0.50;0.50;;;6.20;99.90;7.70;96657.00;;;;5108575;28;20199;-72
2023/04/20 01:40:46;;;;;;;0.57;0.57;;;6.20;99.90;7.80;96655.00;;;;5106398;28;20206;-72
2023/04/20 01:43:37;;;;;;;3.40;0.57;;;6.20;99.90;7.80;96637.00;;;;5100639;28;20877;-72
2023/04/20 01:46:26;;;;;;;0.60;0.60;;;6.20;99.90;7.80;96639.00;;;;5108374;28;20206;-72
2023/04/20 01:49:14;;;;;;;0.43;0.43;;;6.30;99.90;7.80;96649.00;;;;5102078;28;20222;-72
2023/04/20 01:52:03;;;;;;;0.60;0.60;;;6.20;99.90;7.80;96643.00;;;;5106974;28;20265;-73
2023/04/20 01:54:52;;;;;;;1.00;0.80;;;6.30;99.90;7.70;96645.00;;;;5109455;28;20198;-72
2023/04/20 01:57:43;;;;;;;0.80;0.80;;;6.20;99.90;7.70;96633.00;;;;5103884;28;20194;-72
2023/04/20 02:00:32;;;;;;;0.70;0.70;;;6.30;99.90;7.70;96637.00;;;;5104227;28;20203;-72
2023/04/20 02:03:20;;;;;;;0.67;0.60;;;6.20;99.90;7.60;96634.00;;;;5104026;28;20211;-72
2023/04/20 02:06:09;;;;;;;0.60;0.60;;;6.20;99.90;7.60;96632.00;;;;5104273;28;20194;-72
2023/04/20 02:08:58;;;;;;;0.60;0.60;;;6.10;99.90;7.60;96636.00;;;;5104634;28;20214;-72
2023/04/20 02:11:47;;;;;;;0.60;0.60;;;6.10;99.90;7.60;96631.00;;;;5107891;28;20696;-72
2023/04/20 02:14:37;;;;;;;0.60;0.60;;;6.10;99.90;7.60;96633.00;;;;5103068;28;20194;-73
2023/04/20 02:17:26;;;;;;;0.80;0.80;;;6.10;99.90;7.70;96635.00;;;;5105565;28;20206;-73
2023/04/20 02:20:14;;;;;;;0.83;0.67;;;6.10;99.90;7.60;96634.00;;;;5108481;28;20202;-72
2023/04/20 02:23:03;;;;;;;0.70;0.70;;;6.10;99.90;7.70;96636.00;;;;5101800;28;20241;-73
2023/04/20 02:25:52;;;;;;;0.70;0.70;;;6.10;99.90;7.70;96633.00;;;;5105534;28;20201;-73
2023/04/20 02:28:41;;;;;;;0.60;0.60;;;6.20;99.90;7.70;96631.00;;;;5100745;28;20720;-73
2023/04/20 02:31:31;;;;;;;0.70;0.70;;;6.10;99.90;7.70;96633.00;;;;5101734;28;20344;-72
2023/04/20 02:34:19;;;;;;;1.33;1.33;;;6.20;99.90;7.70;96628.00;;;;5108191;28;20685;-73
2023/04/20 02:37:08;;;;;;;0.77;0.77;;;6.10;99.90;7.60;96629.00;;;;5104974;28;20217;-72
2023/04/20 02:39:57;;;;;;;0.53;0.53;;;6.10;99.90;7.70;96632.00;;;;5105759;28;20255;-73
2023/04/20 02:42:45;;;;;;;0.80;0.70;;;6.10;99.90;7.70;96624.00;;;;5105303;28;20215;-73
2023/04/20 02:45:34;;;;;;;0.83;0.80;;;6.20;99.90;7.70;96630.00;;;;5105409;28;20226;-72
2023/04/20 02:48:24;;;;;;;0.73;0.73;;;6.10;99.90;7.70;96629.00;;;;5108307;28;20263;-73
2023/04/20 02:51:13;;;;;;;0.60;0.60;;;6.20;99.90;7.70;96633.00;;;;5103896;28;20198;-73
2023/04/20 02:54:02;;;;;;;0.50;0.50;;;6.20;99.90;7.70;96631.00;;;;5103187;28;20195;-73
2023/04/20 02:56:51;;;;;;;0.90;0.90;;;6.20;99.90;7.80;96627.00;;;;5099973;28;20207;-73
2023/04/20 02:59:39;;;;;;;1.13;1.03;;;6.20;99.90;7.70;96627.00;;;;5102447;28;20202;-73
2023/04/20 03:02:28;;;;;;;0.50;0.50;;;6.20;99.90;7.70;96623.00;;;;5104295;28;20218;-73
2023/04/20 03:05:18;;;;;;;0.70;0.70;;;6.20;99.90;7.70;96626.00;;;;5099710;28;20202;-72
2023/04/20 03:08:07;;;;;;;0.60;0.60;;;6.20;99.90;7.60;96621.00;;;;5101009;28;20222;-73
2023/04/20 03:10:56;;;;;;;2.40;0.97;;;6.20;99.90;7.60;96620.00;;;;5107688;28;20203;-73
2023/04/20 03:13:44;;;;;;;0.93;0.90;;;6.20;99.90;7.70;96620.00;;;;5104808;28;20195;-73
2023/04/20 03:16:34;;;;;;;0.70;0.70;;;6.10;99.90;7.70;96610.00;;;;5107401;28;20190;-72
2023/04/20 03:19:22;;;;;;;0.67;0.67;;;6.10;99.90;7.70;96608.00;;;;5105276;28;20222;-73
2023/04/20 03:22:12;;;;;;;0.60;0.60;;;6.10;99.90;7.50;96620.00;;;;5100174;28;20723;-73
2023/04/20 03:25:01;;;;;;;1.33;0.73;;;6.10;99.90;7.40;96611.00;;;;5105012;28;20248;-72
2023/04/20 03:27:50;;;;;;;1.07;0.97;;;6.10;99.90;7.30;96611.00;;;;5098463;28;20188;-73
2023/04/20 03:30:38;;;;;;;1.03;0.80;;;6.10;99.90;7.40;96626.00;;;;5098234;28;20634;-73
2023/04/20 03:33:27;;;;;;;0.77;0.77;;;6.00;99.90;7.40;96619.00;;;;5102715;28;20266;-73
2023/04/20 03:36:16;;;;;;;2.63;0.80;;;6.00;99.90;7.60;96614.00;;;;5102326;28;20230;-73
2023/04/20 03:39:06;;;;;;;0.80;0.80;;;6.10;99.90;7.60;96612.00;;;;5104926;28;20231;-73
2023/04/20 03:41:56;;;;;;;1.90;0.80;;;6.10;99.90;7.60;96617.00;;;;5102730;28;20355;-73
2023/04/20 03:44:44;;;;;;;1.07;0.87;;;6.00;99.90;7.70;96618.00;;;;5103408;28;20271;-72
2023/04/20 03:47:33;;;;;;;1.00;0.90;;;6.10;99.90;7.70;96623.00;;;;5102426;28;20233;-73
2023/04/20 03:50:22;;;;;;;1.77;0.77;;;6.10;99.90;7.60;96629.00;;;;5100022;28;20219;-73
2023/04/20 03:53:11;;;;;;;0.70;0.70;;;6.10;99.90;7.50;96626.00;;;;5107213;27;20233;-73
2023/04/20 03:56:01;;;;;;;0.63;0.63;;;6.10;99.90;7.70;96624.00;;;;5105319;28;20256;-73
2023/04/20 03:58:49;;;;;;;0.90;0.90;;;6.10;99.90;7.60;96628.00;;;;5097123;28;20229;-73
2023/04/20 04:01:38;;;;;;;0.67;0.67;;;6.10;99.90;7.30;96629.00;;;;5104409;28;20239;-74
2023/04/20 04:04:27;;;;;;;1.23;0.60;;;6.10;99.90;7.50;96633.00;;;;5100052;28;20198;-74
2023/04/20 04:07:16;;;;;;;0.70;0.70;;;6.00;99.90;7.70;96640.00;;;;5094821;27;20206;-73
2023/04/20 04:10:05;;;;;;;1.33;0.77;;;6.10;99.90;7.70;96632.00;;;;5103285;27;20226;-73
2023/04/20 04:12:55;;;;;;;0.70;0.70;;;6.10;99.90;7.70;96639.00;;;;5106498;27;20259;-73
2023/04/20 04:15:44;;;;;;;1.00;1.00;;;6.10;99.90;7.60;96634.00;;;;5099169;28;20301;-73
2023/04/20 04:18:34;;;;;;;0.87;0.87;;;6.10;99.90;7.60;96627.00;;;;5106060;28;20620;-73
2023/04/20 04:21:22;;;;;;;0.80;0.80;;;6.10;99.90;7.70;96629.00;;;;5116883;27;20287;-73
2023/04/20 04:24:11;;;;;;;1.57;1.00;;;6.10;99.90;7.70;96624.00;;;;5101733;28;20198;-74
2023/04/20 04:27:01;;;;;;;1.73;1.37;;;6.10;99.90;7.70;96637.00;;;;5112215;28;20194;-73
2023/04/20 04:29:51;;;;;;;1.53;0.87;;;6.10;99.90;7.30;96626.00;;;;5101471;28;20258;-72
2023/04/20 04:32:39;;;;;;;1.00;1.00;;;6.00;99.90;6.90;96626.00;;;;5104969;28;20315;-72
2023/04/20 04:35:29;;;;;;;3.10;1.00;;;5.90;99.90;7.20;96634.00;;;;5102821;28;20203;-73
2023/04/20 04:38:18;;;;;;;0.70;0.70;;;5.90;99.90;7.30;96630.00;;;;5098201;28;20247;-73
2023/04/20 04:41:07;;;;;;;0.97;0.97;;;6.00;99.90;7.10;96629.00;;;;5106652;28;20199;-73
2023/04/20 04:43:58;;;;;;;1.40;1.30;;;5.90;99.90;7.30;96639.00;;;;5108862;28;20206;-73
2023/04/20 04:46:48;;;;;;;0.93;0.90;;;5.90;99.90;7.30;96637.00;;;;5103409;28;20665;-72
2023/04/20 04:49:36;;;;;;;1.30;1.20;;;5.90;99.90;7.50;96641.00;;;;5097599;28;20613;-72
2023/04/20 04:52:26;;;;;;;1.20;1.10;;;6.00;99.90;7.70;96651.00;;;;5099280;28;20834;-72
2023/04/20 04:55:15;;;;;;;1.50;1.20;;;6.00;99.90;7.80;96653.00;;;;5104781;28;20203;-73
2023/04/20 04:58:04;;;;;;;1.10;0.97;;;6.10;99.90;7.60;96648.00;;;;5107379;28;20201;-73
2023/04/20 05:00:52;;;;;;;1.00;0.80;;;6.10;99.90;7.70;96655.00;;;;5102264;28;20202;-73
2023/04/20 05:03:42;;;;;;;1.10;1.10;;;6.20;99.90;7.90;96650.00;;;;5111305;28;20630;-73
2023/04/20 05:06:31;;;;;;;1.23;0.90;;;6.20;99.90;7.70;96661.00;;;;5119706;28;20205;-73
2023/04/20 05:09:20;;;;;;;1.43;1.33;;;6.20;99.90;7.80;96653.00;;;;5093350;28;20202;-73
2023/04/20 05:12:09;;;;;;;4.20;2.00;;;6.30;99.90;7.80;96656.00;;;;5097417;28;20300;-73
2023/04/20 05:14:57;;;;;;;2.40;2.20;;;6.20;99.90;7.90;96662.00;;;;5103913;28;20207;-73
2023/04/20 05:17:48;;;;;;;1.37;1.27;;;6.30;99.90;7.70;96661.00;;;;5103717;28;20719;-73
2023/04/20 05:20:38;;;;;;;1.20;1.10;;;6.30;99.90;7.60;96664.00;;;;5099737;28;20203;-73
2023/04/20 05:23:27;;;;;;;1.40;1.30;;;6.30;99.90;7.70;96660.00;;;;5105824;27;20546;-73
2023/04/20 05:26:17;;;;;;;2.20;2.00;;;6.30;99.90;7.90;96665.00;;;;5104095;27;20228;-73
2023/04/20 05:29:05;;;;;;;3.93;2.03;;;6.40;99.90;8.30;96682.00;;;;5104547;27;20428;-73
2023/04/20 05:31:54;;;;;;;2.07;1.87;;;6.40;99.90;8.20;96675.00;;;;5111698;27;20634;-74
2023/04/20 05:34:43;;;;;;;1.57;1.40;;;6.40;99.90;8.40;96677.00;;;;5105105;28;20199;-73
2023/04/20 05:37:33;;;;;;;2.33;2.13;;;6.60;99.90;8.40;96681.00;;;;5108830;27;20198;-74
2023/04/20 05:40:22;;;;;;;2.77;2.57;;;6.70;99.90;8.60;96684.00;;;;5117142;27;20215;-74
2023/04/20 05:43:10;;;;;;;3.67;2.43;;;6.70;99.90;8.60;96678.00;;;;5101200;27;20218;-74
2023/04/20 05:45:59;;;;;;;2.50;2.27;;;6.80;99.90;8.60;96672.00;;;;5104454;27;20249;-73
2023/04/20 05:48:48;;;;;;;2.27;2.00;;;6.80;99.90;8.80;96675.00;;;;5104158;27;20623;-74
2023/04/20 05:51:37;;;;;;;3.30;3.00;;;7.00;99.90;8.90;96679.00;;;;5108185;27;20229;-73
2023/04/20 05:54:27;;;;;;;6.60;3.77;;;7.10;99.90;9.00;96671.00;;;;5099277;28;20203;-73
2023/04/20 05:57:16;;;;;;;4.03;2.73;;;7.10;99.90;8.80;96674.00;;;;5108019;27;20209;-74
2023/04/20 06:00:08;;;;;;;2.93;2.63;;;7.20;99.90;9.00;96680.00;;;;5108377;27;20214;-74
2023/04/20 06:02:57;;;;;;;6.57;2.97;;;7.20;99.90;9.10;96692.00;;;;5101862;28;20222;-74
2023/04/20 06:05:45;;;;;;;2.93;2.67;;;7.30;99.90;8.90;96686.00;;;;5109816;28;20194;-73
2023/04/20 06:08:34;;;;;;;2.97;2.53;;;7.30;99.90;8.60;96675.00;;;;5100877;28;20202;-73
2023/04/20 06:11:24;;;;;;;2.53;2.33;;;7.30;99.90;8.80;96686.00;;;;5107195;28;20218;-73
2023/04/20 06:14:13;;;;;;;3.30;2.60;;;7.30;99.90;8.90;96685.00;;;;5094450;28;20198;-73
2023/04/20 06:17:02;;;;;;;3.17;2.53;;;7.40;99.90;8.90;96677.00;;;;5106230;28;20194;-73
2023/04/20 06:19:51;;;;;;;2.87;2.67;;;7.40;99.90;9.10;96690.00;;;;5109906;28;20217;-73
2023/04/20 06:22:44;;;;;;;5.77;2.60;;;7.40;99.90;8.80;96696.00;;;;5103752;28;20227;-74
2023/04/20 06:25:32;;;;;;;3.07;2.30;;;7.40;99.90;8.50;96695.00;;;;5104111;28;20194;-74
2023/04/20 06:28:22;;;;;;;2.77;2.27;;;7.30;99.90;8.70;96697.00;;;;5104999;28;21002;-73
2023/04/20 06:31:11;;;;;;;1.70;1.60;;;7.40;99.90;8.70;96686.00;;;;5100121;28;20262;-73
2023/04/20 06:34:00;;;;;;;2.37;2.07;;;7.30;99.90;8.70;96695.00;;;;5104851;28;20510;-74
2023/04/20 06:36:49;;;;;;;3.17;2.07;;;7.30;99.90;8.50;96697.00;;;;5107012;28;20255;-74
2023/04/20 06:39:37;;;;;;;2.30;2.10;;;7.30;99.90;8.60;96701.00;;;;5100217;28;20203;-73
2023/04/20 06:42:26;;;;;;;2.97;2.10;;;7.50;99.90;8.90;96696.00;;;;5102196;28;20219;-74
2023/04/20 06:45:17;;;;;;;1.67;1.57;;;7.40;99.90;9.20;96705.00;;;;5105556;28;20213;-73
2023/04/20 06:48:06;;;;;;;2.67;2.07;;;7.40;99.90;9.10;96686.00;;;;5109461;28;20211;-73
2023/04/20 06:50:59;;;;;;;2.10;1.90;;;7.50;99.90;9.20;96692.00;;;;5105557;28;20735;-74
2023/04/20 06:53:48;;;;;;;2.30;2.10;;;7.60;99.90;9.30;96683.00;;;;5106453;28;20252;-74
2023/04/20 06:56:37;;;;;;;4.70;2.23;;;7.60;99.90;9.90;96697.00;;;;5108326;28;20222;-73
2023/04/20 06:59:25;;;;;;;2.13;1.93;;;7.80;99.90;9.80;96694.00;;;;5103168;28;20206;-74
2023/04/20 07:02:15;;;;;;;3.13;2.80;;;8.00;99.90;9.70;96695.00;;;;5105087;28;20577;-73
2023/04/20 07:05:05;;;;;;;2.37;2.10;;;8.10;99.90;10.40;96701.00;;;;5103887;28;20203;-74
2023/04/20 07:07:53;;;;;;;2.17;1.93;;;8.20;99.90;10.20;96695.00;;;;5103155;28;20252;-73
2023/04/20 07:10:42;;;;;;;2.50;2.20;;;8.40;99.90;10.30;96685.00;;;;5107928;28;20276;-73
2023/04/20 07:13:31;;;;;;;4.53;3.10;;;8.50;99.90;10.40;96700.00;;;;5100049;28;20202;-74
2023/04/20 07:16:21;;;;;;;3.33;2.60;;;8.60;99.90;10.40;96686.00;;;;5103031;28;20207;-71
2023/04/20 07:19:11;;;;;;;2.70;2.43;;;8.70;99.90;10.90;96695.00;;;;5096545;28;20198;-71
2023/04/20 07:21:59;;;;;;;2.57;2.37;;;8.90;99.90;10.80;96705.00;;;;5105305;28;20226;-71
2023/04/20 07:24:48;;;;;;;2.60;2.30;;;9.00;99.90;10.80;96701.00;;;;5107931;28;20244;-72
2023/04/20 07:27:38;;;;;;;2.73;2.30;;;9.20;99.90;11.30;96713.00;;;;5104199;28;20202;-72
2023/04/20 07:30:27;;;;;;;3.47;2.40;;;9.30;99.90;11.20;96715.00;;;;5105219;28;20595;-72
2023/04/20 07:33:16;;;;;;;2.87;2.13;;;9.40;99.90;11.80;96714.00;;;;5102198;28;20303;-73
2023/04/20 07:36:07;;;;;;;6.80;2.43;;;9.60;99.90;11.10;96705.00;;;;5107850;28;20191;-72
2023/04/20 07:38:55;;;;;;;2.70;2.03;;;9.70;99.90;11.40;96719.00;;;;5099168;27;20717;-72
2023/04/20 07:41:44;;;;;;;2.97;2.47;;;9.80;99.90;11.80;96730.00;;;;5101643;28;20218;-72
2023/04/20 07:44:34;;;;;;;2.93;2.47;;;9.90;99.90;12.50;96718.00;;;;5101816;28;20661;-72
2023/04/20 07:47:23;;;;;;;2.93;2.17;;;10.10;99.90;12.70;96719.00;;;;5106345;28;20213;-72
2023/04/20 07:50:11;;;;;;;2.67;2.37;;;10.30;99.90;12.80;96722.00;;;;5101538;28;20218;-73
2023/04/20 07:53:02;;;;;;;3.07;2.70;;;10.50;99.90;12.80;96709.00;;;;5101457;28;20654;-72
2023/04/20 07:55:50;;;;;;;4.37;2.70;;;10.60;99.90;13.20;96704.00;;;;5098554;28;20209;-72
2023/04/20 07:58:39;;;;;;;2.33;2.13;;;10.80;99.90;13.10;96717.00;;;;5103522;28;20257;-72
2023/04/20 08:01:28;;;;;;;2.27;1.57;;;11.00;99.90;13.50;96712.00;;;;5098043;28;20226;-72
2023/04/20 08:04:17;;;;;;;2.80;2.10;;;11.10;99.90;13.70;96715.00;;;;5102906;28;20209;-72
2023/04/20 08:07:06;;;;;;;3.33;2.67;;;11.30;99.90;14.00;96720.00;;;;5106307;28;20207;-71
2023/04/20 08:09:56;;;;;;;2.30;2.10;;;11.50;99.90;14.30;96705.00;;;;5102576;28;20210;-72
2023/04/20 08:12:45;;;;;;;3.70;1.73;;;11.80;99.90;14.50;96709.00;;;;5104745;28;20222;-72
2023/04/20 08:15:34;;;;;;;2.03;1.80;;;12.00;99.90;14.70;96702.00;;;;5100002;28;20233;-72
2023/04/20 08:18:23;;;;;;;3.23;1.77;;;12.30;99.90;14.80;96707.00;;;;5111383;27;20555;-72
2023/04/20 08:21:12;;;;;;;1.63;1.53;;;12.50;99.90;14.50;96702.00;;;;5105333;28;20708;-72
2023/04/20 08:24:01;;;;;;;2.07;1.60;;;12.60;99.90;14.70;96695.00;;;;5108628;28;20202;-72
2023/04/20 08:26:51;;;;;;;3.00;2.13;;;12.70;99.90;15.70;96702.00;;;;5104824;28;20202;-71
2023/04/20 08:29:40;;;;;;;2.47;2.20;;;12.90;99.90;15.60;96696.00;;;;5100220;28;20206;-72
2023/04/20 08:32:29;;;;;;;2.13;1.93;;;13.20;99.90;15.00;96690.00;;;;5106958;28;20230;-72
2023/04/20 08:35:17;;;;;;;1.63;1.50;;;13.30;99.90;13.40;96681.00;;;;5108616;28;20210;-69
2023/04/20 08:38:06;;;;;;;2.20;1.97;;;13.00;99.90;13.20;96685.00;;;;5105768;28;20798;-69
2023/04/20 08:40:55;;;;;;;1.80;1.70;;;12.60;99.90;13.80;96691.00;;;;5105608;28;20732;-71
2023/04/20 08:43:47;;;;;;;3.00;2.00;;;12.50;99.90;14.80;96690.00;;;;5100702;28;20206;-71
2023/04/20 08:46:37;;;;;;;2.90;2.10;;;12.60;99.90;15.40;96689.00;;;;5100413;28;20205;-70
2023/04/20 08:49:29;;;;;;;2.27;1.80;;;12.90;99.90;16.00;96705.00;;;;5107317;28;20247;-71
2023/04/20 08:52:18;;;;;;;2.23;1.80;;;13.20;99.90;16.00;96687.00;;;;5104712;28;20233;-72
2023/04/20 08:55:08;;;;;;;4.47;1.70;;;13.40;99.90;16.40;96701.00;;;;5105978;28;20203;-72
2023/04/20 08:57:56;;;;;;;1.83;1.73;;;13.70;99.90;15.10;96691.00;;;;5105327;27;20198;-72
2023/04/20 09:00:50;;;;;;;2.60;1.80;;;13.80;99.90;16.60;96699.00;;;;5108258;28;20199;-70
2023/04/20 09:03:40;;;;;;;2.13;1.60;;;14.00;99.90;16.60;96696.00;;;;5110174;27;20202;-71
2023/04/20 09:06:29;;;;;;;3.23;2.27;;;14.20;99.90;16.50;96701.00;;;;5110372;28;20195;-72
2023/04/20 09:09:19;;;;;;;2.60;2.40;;;14.40;99.90;15.90;96712.00;;;;5103123;27;20762;-71
2023/04/20 09:12:09;;;;;;;3.30;2.13;;;14.30;99.70;16.30;96713.00;;;;5109646;27;20310;-71
2023/04/20 09:15:00;;;;;;;4.50;2.00;;;14.20;99.00;16.10;96704.00;;;;5107208;28;20276;-71
2023/04/20 09:17:50;;;;;;;2.13;1.93;;;14.20;99.90;16.10;96703.00;;;;5110455;27;20198;-72
2023/04/20 09:20:39;;;;;;;4.20;2.13;;;14.20;99.90;16.30;96713.00;;;;5106416;27;20201;-72
2023/04/20 09:23:28;;;;;;;2.73;2.50;;;14.10;99.70;16.20;96712.00;;;;5107643;27;20206;-72
2023/04/20 09:26:18;;;;;;;2.07;1.87;;;14.10;99.90;16.30;96714.00;;;;5107848;27;20214;-71
2023/04/20 09:29:19;;;;;;;2.77;2.30;;;14.10;99.90;16.60;96713.00;;;;5108201;27;20199;-71
2023/04/20 09:32:08;;;;;;;1.73;1.63;;;14.10;99.90;16.80;96708.00;;;;5111164;27;20257;-71
2023/04/20 09:34:58;;;;;;;4.63;2.23;;;14.30;99.90;15.40;96712.00;;;;5107050;27;20198;-71
2023/04/20 09:37:50;;;;;;;3.83;2.13;;;14.30;98.40;16.00;96679.00;;;;5111487;27;20197;-70
2023/04/20 09:40:39;;;;;;;6.37;2.43;;;14.20;98.50;17.30;96706.00;;;;5106000;27;20756;-69
2023/04/20 09:43:30;;;;;;;4.03;2.80;;;14.50;99.70;16.80;96704.00;;;;5109597;27;20210;-70
2023/04/20 09:46:18;;;;;;;4.77;2.27;;;14.70;99.10;17.60;96695.00;;;;5090892;28;20195;-70
2023/04/20 09:49:09;;;;;;;2.73;2.47;;;14.90;99.40;17.30;96702.00;;;;5106511;28;20261;-71
2023/04/20 09:52:03;;;;;;;2.17;1.93;;;15.10;99.00;17.10;96710.00;;;;5108158;27;20214;-71
2023/04/20 09:54:52;;;;;;;2.43;2.23;;;15.10;98.40;17.30;96709.00;;;;5103867;28;20198;-68
2023/04/20 09:57:41;;;;;;;2.73;2.33;;;15.10;98.40;17.00;96701.00;;;;5109071;28;20235;-69
2023/04/20 10:00:30;;;;;;;4.10;2.33;;;15.10;97.70;16.90;96704.00;;;;5112538;27;20203;-71
2023/04/20 10:03:20;;;;;;;2.53;2.20;;;15.00;97.20;16.20;96691.00;;;;5106773;27;20229;-71
2023/04/20 10:06:22;;;;;;;3.27;2.77;;;14.80;96.60;15.30;96693.00;;;;5097114;28;20597;-66
2023/04/20 10:09:23;;;;;;;3.47;2.40;;;14.50;96.90;14.60;96693.00;;;;5105697;28;20596;-71
2023/04/20 10:12:13;;;;;;;3.00;2.50;;;14.00;97.40;14.40;96689.00;;;;5098004;28;20218;-71
2023/04/20 10:15:01;;;;;;;4.13;2.87;;;13.60;97.10;14.20;96679.00;;;;5108702;27;20206;-69
2023/04/20 10:17:51;;;;;;;2.83;2.40;;;13.30;98.30;14.60;96686.00;;;;5109441;28;20222;-69
2023/04/20 10:20:40;;;;;;;4.80;3.30;;;;;14.40;96689.00;;;;5101666;27;20191;-67
2023/04/20 10:23:28;;;;;;;2.77;2.17;;;13.10;98.20;14.20;96692.00;;;;5105405;27;20269;-66
2023/04/20 10:26:19;;;;;;;2.87;1.97;;;13.00;98.80;14.30;96698.00;;;;5099916;27;20674;-69
2023/04/20 10:29:08;;;;;;;2.33;2.13;;;13.00;99.10;14.20;96691.00;;;;5108692;27;20206;-72
2023/04/20 10:31:57;;;;;;;2.57;2.37;;;12.90;99.00;14.70;96699.00;;;;5106556;27;20218;-67
2023/04/20 10:34:46;;;;;;;1.90;1.77;;;12.90;99.00;14.80;96694.00;;;;5113255;27;21303;-70
2023/04/20 10:37:36;;;;;;;3.80;2.40;;;12.90;99.40;14.40;96690.00;;;;5105875;28;20202;-72
2023/04/20 10:40:26;;;;;;;3.37;2.40;;;13.00;99.90;14.50;96694.00;;;;5094854;28;20940;-69
2023/04/20 10:43:21;;;;;;;4.77;2.33;;;13.00;99.90;14.80;96694.00;;;;5105854;28;20283;-67
2023/04/20 10:46:17;;;;;;;2.90;2.60;;;13.10;99.90;14.30;96691.00;;;;5102343;28;20209;-70
2023/04/20 10:49:06;;;;;;;2.70;2.43;;;13.00;99.40;14.70;96691.00;;;;5108173;28;20203;-72
2023/04/20 10:51:55;;;;;;;2.70;2.37;;;13.00;99.60;14.90;96686.00;;;;5103942;28;20731;-69
2023/04/20 10:54:44;;;;;;;3.53;2.30;;;13.10;99.90;15.00;96690.00;;;;5102680;28;20195;-70
2023/04/20 10:57:33;;;;;;;2.60;2.40;;;13.20;99.80;14.90;96682.00;;;;5102027;28;20251;-66
2023/04/20 11:00:26;;;;;;;3.07;2.40;;;13.30;99.90;14.50;96680.00;;;;5101065;28;20215;-66
2023/04/20 11:03:15;;;;;;;2.90;2.53;;;13.30;99.50;14.70;96676.00;;;;5106392;28;20230;-70
2023/04/20 11:06:04;;;;;;;2.47;2.27;;;13.20;99.90;15.60;96682.00;;;;5108756;28;20191;-68
2023/04/20 11:08:53;;;;;;;2.80;2.33;;;13.40;99.50;16.10;96680.00;;;;5105713;28;20218;-68
2023/04/20 11:11:41;;;;;;;3.83;2.90;;;13.50;99.60;15.80;96680.00;;;;5108949;28;20251;-67
2023/04/20 11:14:31;;;;;;;2.67;2.47;;;13.80;99.70;15.10;96681.00;;;;5106736;28;20701;-69
2023/04/20 11:17:21;;;;;;;2.90;2.23;;;13.80;99.00;15.00;96671.00;;;;5106771;28;20195;-70
2023/04/20 11:20:13;;;;;;;2.33;2.17;;;13.80;99.10;15.50;96668.00;;;;5104188;28;20354;-68
2023/04/20 11:23:04;;;;;;;4.40;2.37;;;13.90;99.50;15.80;96666.00;;;;5098276;28;20246;-67
2023/04/20 11:25:55;;;;;;;4.20;2.30;;;13.90;99.00;15.90;96679.00;;;;5104810;28;20203;-66
2023/04/20 11:28:52;;;;;;;5.03;2.67;;;14.00;98.50;15.70;96671.00;;;;5100928;28;20575;-70
2023/04/20 11:31:42;;;;;;;3.13;2.37;;;14.10;99.20;15.20;96668.00;;;;5101008;28;20933;-71
2023/04/20 11:34:34;;;;;;;3.27;3.07;;;14.10;98.50;15.80;96678.00;;;;5102484;28;20218;-68
2023/04/20 11:37:23;;;;;;;3.07;2.73;;;14.10;99.30;16.30;96680.00;;;;5097302;28;20203;-68
2023/04/20 11:40:12;;;;;;;2.60;2.40;;;14.20;99.20;16.50;96682.00;;;;5104794;28;20554;-68
2023/04/20 11:43:03;;;;;;;2.73;2.37;;;14.30;99.30;16.40;96685.00;;;;5102334;28;20215;-67
2023/04/20 11:45:51;;;;;;;4.83;2.70;;;14.50;98.90;17.20;96683.00;;;;5105057;28;20205;-68
2023/04/20 11:48:40;;;;;;;2.93;2.53;;;14.70;98.60;16.20;96683.00;;;;5107723;28;20208;-70
2023/04/20 11:51:31;;;;;;;3.23;2.50;;;14.80;98.50;16.10;96672.00;;;;5107221;28;20207;-68
2023/04/20 11:54:20;;;;;;;3.03;2.77;;;14.80;98.80;15.50;96670.00;;;;5105160;28;20279;-67
2023/04/20 11:57:09;;;;;;;3.77;2.97;;;14.60;97.50;15.60;96673.00;;;;5108224;28;20202;-66
2023/04/20 11:59:58;;;;;;;3.67;2.80;;;14.50;97.90;15.50;96671.00;;;;5107844;28;20210;-68
2023/04/20 12:02:47;;;;;;;2.93;2.60;;;14.30;98.30;15.30;96675.00;;;;5102119;28;20210;-73
2023/04/20 12:05:36;;;;;;;3.33;2.83;;;14.20;97.80;16.20;96683.00;;;;5106474;28;20198;-67
2023/04/20 12:08:26;;;;;;;2.57;2.37;;;14.20;97.80;16.50;96672.00;;;;5105461;28;20681;-68
2023/04/20 12:11:15;;;;;;;3.00;2.33;;;14.30;98.00;15.90;96670.00;;;;5104346;28;20227;-68
2023/04/20 12:14:04;;;;;;;3.37;2.57;;;14.30;97.60;16.10;96651.00;;;;5106858;28;20640;-70
2023/04/20 12:16:53;;;;;;;3.00;2.30;;;14.40;98.00;16.20;96658.00;;;;5108489;28;20619;-67
2023/04/20 12:19:41;;;;;;;2.57;2.37;;;14.50;97.70;15.40;96643.00;;;;5107888;28;20255;-74
2023/04/20 12:22:30;;;;;;;3.97;3.10;;;14.50;97.40;15.60;96646.00;;;;5106812;28;20230;-73
2023/04/20 12:25:21;;;;;;;4.43;2.70;;;14.40;97.70;15.90;96645.00;;;;5106695;28;20213;-64
2023/04/20 12:28:10;;;;;;;3.30;2.13;;;14.40;98.20;15.40;96638.00;;;;5094740;28;20198;-73
2023/04/20 12:30:59;;;;;;;5.20;3.13;;;14.40;98.00;16.40;96647.00;;;;5106971;28;20266;-67
2023/04/20 12:33:47;;;;;;;3.33;2.67;;;14.40;97.50;16.50;96645.00;;;;5106042;28;20244;-68
2023/04/20 12:36:36;;;;;;;3.47;2.83;;;14.70;97.70;17.30;96644.00;;;;5106028;28;20194;-67
2023/04/20 12:39:25;;;;;;;2.57;2.37;;;14.90;98.00;17.10;96653.00;;;;5099830;28;20203;-70
2023/04/20 12:42:15;;;;;;;3.57;1.87;;;15.20;96.70;16.50;96632.00;;;;5105407;28;20252;-74